INDIA METEOROLOGICAL DEPARTMENT, R.M.C. NEW DELHI
Dated:17-09-2021
METARS


Agartala   
VEAT 170330Z 00000KT 5000 BR FEW018 BKN100 31/26 Q1007 NOSIG=
Ahmedabad  
VAAH 170300Z 21005KT 1500 BR SCT015 SCT020 OVC080 26/26 Q1004 NOSIG=
Allahabad  
VEAB 170300Z 25005KT 3000 -RABR SCT012 SCT020 BKN090 29/26 Q1003 TEMPO BKN010,2000M=
Aurangabad 
VAAU 170300Z 25004KT 4000 HZ SCT012 SCT020 BKN100 23/21 Q1009 NOSIG=
Bangalore  
VOBL 170330Z 28010KT 6000 SCT012 SCT080 23/19 Q1014 NOSIG=
Baroda     
VABO 170330Z 20003KT 4000 HZ SCT015 SCT020 BKN080 26/25 Q1005 NOSIG=
Bhaunagar  
VABV 170300Z 00000KT 3000 DZ BR SCT015 SCT020 OVC080 26/25 Q1005=
Bhopal     
VABP 170300Z 23010KT 6000 SCT006 BKN018 BKN100 24/22 Q1005 NOSIG=
Bhubaneswar
VEBS 170300Z 00000KT 5000 HZ SCT018 BKN100 30/25 Q1005 NOSIG=
Bhuntar    
VIBR 170330Z 00000KT 5000 BR SCT006 BKN025 BKN060 22/20 Q1011=
Chennai    
VOMM 170330Z 21008KT 5000 HZ SCT020 32/25 Q1007 BECMG 6000=
Coimbatore 
VOCB 170330Z 20006KT 5000 BR FEW012 BKN080 27/23 Q1012 NOSIG=
Colombo    
VCBI 170310Z 24006KT 210V300 9999 SCT017 29/25 Q1009 NOSIG=
Delhi      
VIDP 170330Z 10007G17KT 4000 BR SCT035 BKN100 27/24 Q1005 NOSIG=
Dehradun   
VIDN 170300Z 19003KT 6000 SCT020 BKN060 25/24 Q1006=
Gauhati    
VEGT 170330Z 00000KT 5000 BR SCT018 BKN100 29/25 Q1007 NOSIG=
Gaya       
VEGY 170300Z 00000KT 3500 BR SCT018 FEW030CB BKN100 28/25 Q1005 NOSIG=
Gaggal     
VIGG 170300Z 00000KT 2000 -RA SCT005 SCT025 FEW035CB OVC080 21/21 Q1010=
Goa        
VOGO 170300Z 25005KT 6000 FEW012 SCT020 BKN080 28/25 Q1008 NOSIG=
Fursatganj 
VERB 170300Z 09010KT 5000 BR BKN020 OVC080 26/25 Q1001 =
Hyderabad  
VOHS 170330Z 27008KT 6000 FEW015 27/22 Q1011 NOSIG=
Imphal     
VEIM 170330Z 24002KT 5000 BR FEW010 SCT018 BKN100 26/23 Q1012 NOSIG=
Indore     
VAID 170300Z 27010KT 5000 HZ FEW010 SCT018 BKN100 23/21 Q1007 NOSIG=
Jabalpur   
VAJB 170300Z 23012KT 4000 BR SCT007 BKN018 OVC080 25/23 Q1006=
Jaipur     
VIJP 170330Z 02007KT 2500 HZ SCT030 SCT100 27/21 Q1005 BECMG 3000 HZ=
Kochi      
VOCI 170330Z 00000KT 4000 BR SCT012 SCT080 29/25 Q1009 BECMG 5000 BR=
Kolkata    
VECC 170330Z 00000KT 3500 HZ SCT018 BKN100 32/28 Q1005 NOSIG=
Kozhikode  
VOCL 170300Z 29005KT 8000 FEW015 28/24 Q1009 NOSIG=
Lucknow    
VILK 170330Z 10010KT 3500 BR SCT018 SCT025 BKN100 26/24 Q1002 NOSIG=
Madurai    
VOMD 170330Z VRB03KT 6000 FEW020 SCT090 32/24 Q1009 NOSIG=
Mohanbari  
VEMN 170330Z 04004KT 2500 BR SCT008 SCT018 FEW025CB OVC090 25/25 Q1009 NOSIG=
Mumbai     
VABB 170330Z 21010KT 3000 HZ SCT020 SCT025 29/25 Q1007 NOSIG=
Nagpur     
VANP 170300Z 20002KT 2500 BR FEW010 SCT018 OVC080 25/24 Q1007 NOSIG=
Patna      
VEPT 170330Z 14012KT 3500 BR SCT018 BKN100 29/26 Q1004 NOSIG=
Raipur     
VERP 170300Z 23010KT 6000 FEW012 SCT020 BKN090 26/24 Q1006 NOSIG=
Safdarjung 
VIDD 170330Z 17006KT 3500 BR SCT030 BKN100 27/24 Q1005 NOSIG=
Shimla     
VISM 170300Z 00000KT 5000 SCT020 OVC050 19/17 Q1015=
Surat     
VASU 170300Z 16010KT 5000 BR FEW012 SCT018 BKN080 27/24 Q1006 NOSIG=
Ranchi     
VERC 170330Z 21004KT 4000 HZ SCT018 BKN100 25/24 Q1009 NOSIG=
Trichy     
VOTR 170330Z 26005KT 4000 HZ SCT016 SCT100 30/24 Q1009 NOSIG=
Trivandrum 
VOTV 170330Z 31008KT 6000 FEW015 SCT080 30/25 Q1009 NOSIG=
Udaipur    
VAUD 170300Z 14002KT 2500 HZ NSC 26/24 Q1006 BECMG 3000 HZ=
Varanasi   
VEBN 170300Z 10006KT 2500 BR BKN020 OVC080 26/25 Q1003 NOSIG=
Vizag      
VOVZ 170300Z 25004KT 4000 BR FEW016 BKN220 30/26 Q1006 NOSIG=
Male       
VRMM 170300Z 30012KT 9999 FEW018 SCT120 BKN280 29/25 Q1010 NOSIG=
Gan        
VRMG 170300Z 30003KT 9999 SCT017TCU BKN110 29/26 Q1010 TEMPO 5000 -TSRA=
Kathmandu  
VNKT 170320Z VRB02KT 7000 FEW008 SCT030 BKN100 22/20 Q1015 NOSIG=
Dhaka      
VGHS 170300Z 09007KT 3500 HZ BKN010 FEW025CB BKN100 30/25 Q1006 TEMPO TSRA=
Colombo    
VCBI 170310Z 24006KT 210V300 9999 SCT017 29/25 Q1009 NOSIG=
Karachi    
OPKC 170330Z 00000KT 5000 HZ NSC 33/23 Q1004 NOSIG=
Lahore     
OPLA 170325Z 12006KT 6000 SCT040 26/23 Q1005 BECMG 7000 RMK QFE977 RMK A29.68=
Gorakhpur  
VEGK 170300Z 09007KT 3000 -TSRA BKN005 SCT007 FEW030CB OVC080 26/26 Q1004 TEMPO 1500=
Agra       
VIAG 170300Z 02010G20KT 6000 -RA BKN006 SCT010 OVC080 25/24 Q1001 TEMPO 02015G25KT 2000 RA=
Bagdogra   
VEBD 170300Z VRB01KT 6000 SCT025 BKN090 30/25 Q1007 NOSIG=
Gwalior    
VIGR 170300Z 36010KT 1500 -RABR SCT005 BKN008 OVC080 24/24 Q1000 TEMPO 1000 RABR=
Pune       
VAPO 170300Z 27008KT 6000 FEW025 SCT090 25/21 Q1011 NOSIG=
Jamnagar   
VAJM 170300Z 23003KT 4000 BR FEW010 SCT015 BKN025 30/27 Q1004 BECMG 5000=
Pathankot   
VIPK 170300Z VRB02KT 5000 BR SCT020 BKN090 26/26 Q1007 TEMPO -RA=